createdAt,value
2023-10-09T00:01:25.163Z,100362.69
2023-10-09T00:03:53.983Z,100354.97
2023-10-09T00:06:23.368Z,100356.81
2023-10-09T00:08:53.502Z,100349.84
2023-10-09T00:11:20.758Z,100350.00
2023-10-09T00:13:49.092Z,100355.66
2023-10-09T00:16:19.012Z,100349.53
2023-10-09T00:18:48.093Z,100344.38
2023-10-09T00:21:18.181Z,100345.75
2023-10-09T00:23:46.628Z,100346.06
2023-10-09T00:26:15.138Z,100348.53
2023-10-09T00:28:49.702Z,100347.88
2023-10-09T00:31:18.621Z,100354.53
2023-10-09T00:33:46.727Z,100351.34
2023-10-09T00:36:13.734Z,100350.28
2023-10-09T00:38:41.206Z,100345.91
2023-10-09T00:41:08.133Z,100348.41
2023-10-09T00:43:36.548Z,100340.16
2023-10-09T00:46:06.767Z,100338.22
2023-10-09T00:48:34.210Z,100337.31
2023-10-09T00:51:02.854Z,100342.06
2023-10-09T00:53:30.303Z,100328.13
2023-10-09T00:55:59.048Z,100324.81
2023-10-09T00:58:26.966Z,100326.25
2023-10-09T01:00:55.585Z,100325.34
2023-10-09T01:03:23.032Z,100319.09
2023-10-09T01:05:53.641Z,100317.41
2023-10-09T01:08:22.594Z,100316.59
2023-10-09T01:10:49.948Z,100303.75
2023-10-09T01:13:18.415Z,100303.66
2023-10-09T01:15:45.582Z,100308.06
2023-10-09T01:18:15.654Z,100313.41
2023-10-09T01:20:43.429Z,100302.22
2023-10-09T01:23:13.372Z,100306.16
2023-10-09T01:25:40.562Z,100300.88
2023-10-09T01:28:07.801Z,100294.72
2023-10-09T01:30:37.155Z,100290.88
2023-10-09T01:33:05.085Z,100296.53
2023-10-09T01:35:32.039Z,100297.38
2023-10-09T01:37:59.024Z,100289.97
2023-10-09T01:40:27.341Z,100292.53
2023-10-09T01:42:54.337Z,100285.88
2023-10-09T01:45:21.648Z,100287.19
2023-10-09T01:47:48.567Z,100291.50
2023-10-09T01:50:17.387Z,100285.59
2023-10-09T01:52:46.446Z,100286.97
2023-10-09T01:55:15.064Z,100279.16
2023-10-09T01:57:43.291Z,100288.75
2023-10-09T02:00:12.994Z,100288.66
2023-10-09T02:02:40.489Z,100285.00
2023-10-09T02:05:10.471Z,100282.72
2023-10-09T02:07:37.782Z,100289.03
2023-10-09T02:10:06.926Z,100277.19
2023-10-09T02:12:34.801Z,100278.47
2023-10-09T02:15:04.873Z,100277.03
2023-10-09T02:17:32.385Z,100271.09
2023-10-09T02:19:59.640Z,100278.19
2023-10-09T02:22:26.722Z,100277.25
2023-10-09T02:24:53.993Z,100276.06
2023-10-09T02:27:21.113Z,100274.16
2023-10-09T02:29:48.312Z,100275.22
2023-10-09T02:32:19.308Z,100268.03
2023-10-09T02:34:46.432Z,100255.66
2023-10-09T02:37:14.387Z,100255.34
2023-10-09T02:39:41.839Z,100255.06
2023-10-09T02:42:08.829Z,100250.81
2023-10-09T02:44:36.112Z,100255.34
2023-10-09T02:47:03.074Z,100253.16
2023-10-09T02:49:31.974Z,100249.75
2023-10-09T02:51:59.193Z,100251.63
2023-10-09T02:54:26.697Z,100256.22
2023-10-09T02:56:54.732Z,100248.97
2023-10-09T02:59:22.815Z,100255.25
2023-10-09T03:01:51.776Z,100255.91
2023-10-09T03:04:21.154Z,100259.75
2023-10-09T03:06:50.478Z,100254.78
2023-10-09T03:09:18.458Z,100256.16
2023-10-09T03:11:47.715Z,100258.41
2023-10-09T03:14:16.087Z,100254.38
2023-10-09T03:16:42.990Z,100253.72
2023-10-09T03:19:10.077Z,100249.34
2023-10-09T03:21:36.987Z,100242.38
2023-10-09T03:24:06.462Z,100237.34
2023-10-09T03:26:34.910Z,100236.72
2023-10-09T03:29:02.146Z,100231.44
2023-10-09T03:31:30.223Z,100230.25
2023-10-09T03:33:57.187Z,100230.53
2023-10-09T03:36:25.373Z,100229.97
2023-10-09T03:38:52.382Z,100233.00
2023-10-09T03:41:20.843Z,100227.66
2023-10-09T03:43:48.046Z,100236.91
2023-10-09T03:46:17.712Z,100231.41
2023-10-09T03:48:45.331Z,100230.13
2023-10-09T03:51:13.192Z,100237.31
2023-10-09T03:53:40.837Z,100244.19
2023-10-09T03:56:09.291Z,100231.03
2023-10-09T03:58:38.323Z,100241.47
2023-10-09T04:01:09.199Z,100243.63
2023-10-09T04:03:36.647Z,100247.00
2023-10-09T04:06:04.413Z,100257.50
2023-10-09T04:08:31.351Z,100256.44
2023-10-09T04:10:58.946Z,100257.06
2023-10-09T04:13:25.960Z,100247.09
2023-10-09T04:15:54.238Z,100256.88
2023-10-09T04:18:22.096Z,100261.06
2023-10-09T04:20:49.456Z,100258.94
2023-10-09T04:23:16.610Z,100260.75
2023-10-09T04:25:44.045Z,100261.75
2023-10-09T04:28:11.790Z,100249.91
2023-10-09T04:30:40.902Z,100250.06
2023-10-09T04:33:09.710Z,100249.63
2023-10-09T04:35:37.287Z,100252.72
2023-10-09T04:38:04.625Z,100262.31
2023-10-09T04:40:32.290Z,100251.56
2023-10-09T04:42:59.457Z,100245.69
2023-10-09T04:45:26.983Z,100244.91
2023-10-09T04:47:55.055Z,100233.06
2023-10-09T04:50:23.756Z,100243.50
2023-10-09T04:52:50.725Z,100245.44
2023-10-09T04:55:18.143Z,100246.16
2023-10-09T04:57:48.319Z,100243.22
2023-10-09T05:00:19.324Z,100241.47
2023-10-09T05:02:50.154Z,100237.63
2023-10-09T05:05:18.603Z,100236.19
2023-10-09T05:07:47.020Z,100231.22
2023-10-09T05:10:14.546Z,100224.50
2023-10-09T05:12:41.664Z,100221.41
2023-10-09T05:15:10.276Z,100234.13
2023-10-09T05:17:38.701Z,100224.59
2023-10-09T05:20:07.604Z,100231.28
2023-10-09T05:22:34.647Z,100231.81
2023-10-09T05:25:03.860Z,100236.28
2023-10-09T05:27:31.157Z,100231.81
2023-10-09T05:29:58.360Z,100236.19
2023-10-09T05:32:25.499Z,100244.81
2023-10-09T05:34:52.996Z,100249.78
2023-10-09T05:37:20.212Z,100248.44
2023-10-09T05:39:49.497Z,100240.34
2023-10-09T05:42:19.288Z,100236.03
2023-10-09T05:44:48.109Z,100245.34
2023-10-09T05:47:15.068Z,100243.34
2023-10-09T05:49:42.979Z,100252.56
2023-10-09T05:52:10.409Z,100245.25
2023-10-09T05:54:37.634Z,100255.22
2023-10-09T05:57:04.803Z,100255.00
2023-10-09T05:59:33.023Z,100264.75
2023-10-09T06:02:01.073Z,100259.31
2023-10-09T06:04:28.873Z,100264.28
2023-10-09T06:06:55.862Z,100260.97
2023-10-09T06:09:23.408Z,100260.81
2023-10-09T06:11:51.681Z,100255.22
2023-10-09T06:14:20.977Z,100260.31
2023-10-09T06:17:08.625Z,100259.41
2023-10-09T06:19:35.789Z,100267.50
2023-10-09T06:22:02.842Z,100264.63
2023-10-09T06:24:29.887Z,100274.78
2023-10-09T06:26:56.865Z,100286.63
2023-10-09T06:29:24.201Z,100283.94
2023-10-09T06:31:51.116Z,100275.81
2023-10-09T06:34:19.909Z,100276.41
2023-10-09T06:36:47.103Z,100284.72
2023-10-09T06:39:14.854Z,100275.91
2023-10-09T06:41:41.764Z,100286.38
2023-10-09T06:44:10.572Z,100288.41
2023-10-09T06:46:38.663Z,100283.31
2023-10-09T06:49:05.735Z,100280.19
2023-10-09T06:51:34.141Z,100286.09
2023-10-09T06:54:02.343Z,100275.19
2023-10-09T06:56:31.131Z,100273.31
2023-10-09T06:58:59.282Z,100279.44
2023-10-09T07:01:26.740Z,100280.25
2023-10-09T07:03:54.528Z,100273.03
2023-10-09T07:06:22.609Z,100281.50
2023-10-09T07:08:53.942Z,100277.00
2023-10-09T07:11:20.894Z,100279.13
2023-10-09T07:13:48.169Z,100276.88
2023-10-09T07:16:15.271Z,100275.72
2023-10-09T07:18:43.575Z,100270.91
2023-10-09T07:21:14.763Z,100271.88
2023-10-09T07:23:42.059Z,100277.97
2023-10-09T07:26:10.358Z,100277.97
2023-10-09T07:28:37.633Z,100286.16
2023-10-09T07:31:05.481Z,100283.47
2023-10-09T07:33:32.888Z,100282.31
2023-10-09T07:36:03.047Z,100281.13
2023-10-09T07:38:30.274Z,100294.53
2023-10-09T07:40:58.082Z,100287.13
2023-10-09T07:43:29.297Z,100280.16
2023-10-09T07:45:59.445Z,100272.34
2023-10-09T07:48:27.834Z,100283.25
2023-10-09T07:50:57.575Z,100288.63
2023-10-09T07:53:24.977Z,100291.22
2023-10-09T07:55:52.472Z,100289.25
2023-10-09T07:58:22.428Z,100285.75
2023-10-09T08:00:54.993Z,100286.13
2023-10-09T08:03:22.321Z,100295.16
2023-10-09T08:05:49.718Z,100297.50
2023-10-09T08:08:27.105Z,100303.06
2023-10-09T08:11:03.019Z,100305.50
2023-10-09T08:13:29.844Z,100302.25
2023-10-09T08:15:58.900Z,100308.69
2023-10-09T08:18:26.091Z,100297.81
2023-10-09T08:20:54.257Z,100294.50
2023-10-09T08:23:22.543Z,100285.66
2023-10-09T08:25:51.333Z,100285.03
2023-10-09T08:28:18.901Z,100292.50
2023-10-09T08:30:46.527Z,100286.97
2023-10-09T08:35:46.361Z,100305.44
2023-10-09T08:38:13.332Z,100311.78
2023-10-09T08:40:42.558Z,100316.97
2023-10-09T08:43:15.605Z,100311.16
2023-10-09T08:45:48.032Z,100308.75
2023-10-09T08:48:17.192Z,100308.47
2023-10-09T08:50:46.712Z,100305.00
2023-10-09T08:53:14.742Z,100310.19
2023-10-09T08:55:42.831Z,100307.81
2023-10-09T08:58:10.639Z,100314.78
2023-10-09T09:00:42.791Z,100327.22
2023-10-09T09:03:10.629Z,100324.47
2023-10-09T09:05:41.570Z,100338.88
2023-10-09T09:08:24.950Z,100341.00
2023-10-09T09:10:58.546Z,100339.50
2023-10-09T09:13:30.124Z,100332.72
2023-10-09T09:15:57.536Z,100332.25
2023-10-09T09:18:24.566Z,100327.41
2023-10-09T09:20:53.841Z,100321.44
2023-10-09T09:23:22.236Z,100321.78
2023-10-09T09:25:51.005Z,100323.53
2023-10-09T09:28:17.921Z,100310.75
2023-10-09T09:30:45.101Z,100311.56
2023-10-09T09:33:20.752Z,100306.75
2023-10-09T09:35:59.890Z,100321.31
2023-10-09T09:38:28.359Z,100317.56
2023-10-09T09:40:58.319Z,100317.81
2023-10-09T09:43:29.067Z,100312.69
2023-10-09T09:45:58.809Z,100320.13
2023-10-09T09:48:28.331Z,100324.75
2023-10-09T09:50:55.541Z,100322.75
2023-10-09T09:53:25.093Z,100317.56
2023-10-09T09:55:55.087Z,100324.72
2023-10-09T09:58:22.767Z,100322.81
2023-10-09T10:00:54.784Z,100324.44
2023-10-09T10:03:30.361Z,100328.31
2023-10-09T10:05:59.287Z,100335.47
2023-10-09T10:08:28.089Z,100332.16
2023-10-09T10:10:55.883Z,100337.91
2023-10-09T10:13:58.068Z,100334.63
2023-10-09T10:16:25.149Z,100336.31
2023-10-09T10:18:57.910Z,100328.88
2023-10-09T10:21:27.137Z,100337.41
2023-10-09T10:23:56.448Z,100321.16
2023-10-09T10:26:25.358Z,100315.63
2023-10-09T10:29:20.141Z,100316.28
2023-10-09T10:31:57.811Z,100318.19
2023-10-09T10:34:26.340Z,100319.88
2023-10-09T10:36:54.651Z,100310.81
2023-10-09T10:39:23.982Z,100319.88
2023-10-09T10:42:02.093Z,100307.25
2023-10-09T10:44:46.921Z,100302.03
2023-10-09T10:47:14.706Z,100312.75
2023-10-09T10:49:45.601Z,100315.06
2023-10-09T10:52:22.540Z,100307.41
2023-10-09T10:54:52.268Z,100320.34
2023-10-09T10:57:21.587Z,100334.91
2023-10-09T10:59:48.817Z,100332.63
2023-10-09T11:02:19.253Z,100332.41
2023-10-09T11:04:50.323Z,100338.69
2023-10-09T11:07:23.477Z,100342.03
2023-10-09T11:09:56.951Z,100341.19
2023-10-09T11:12:26.001Z,100338.44
2023-10-09T11:14:53.110Z,100328.25
2023-10-09T11:17:22.121Z,100322.78
2023-10-09T11:19:49.856Z,100315.13
2023-10-09T11:22:24.896Z,100297.50
2023-10-09T11:24:54.410Z,100287.88
2023-10-09T11:27:21.759Z,100294.75
2023-10-09T11:29:52.804Z,100306.03
2023-10-09T11:32:21.677Z,100304.66
2023-10-09T11:34:50.184Z,100298.00
2023-10-09T11:37:19.790Z,100297.44
2023-10-09T11:39:46.897Z,100290.53
2023-10-09T11:42:16.189Z,100298.22
2023-10-09T11:44:44.754Z,100297.94
2023-10-09T11:47:12.661Z,100310.06
2023-10-09T11:49:49.799Z,100305.91
2023-10-09T11:52:16.882Z,100300.41
2023-10-09T11:54:43.790Z,100314.19
2023-10-09T11:57:10.687Z,100313.91
2023-10-09T11:59:39.206Z,100310.00
2023-10-09T12:02:06.304Z,100303.31
2023-10-09T12:04:33.688Z,100292.19
2023-10-09T12:07:02.957Z,100287.66
2023-10-09T12:09:31.325Z,100271.31
2023-10-09T12:12:04.245Z,100252.44
2023-10-09T12:14:32.479Z,100216.38
2023-10-09T12:17:01.603Z,100204.59
2023-10-09T12:19:29.199Z,100208.41
2023-10-09T12:21:57.366Z,100204.06
2023-10-09T12:24:24.257Z,100221.13
2023-10-09T12:26:53.036Z,100223.56
2023-10-09T12:29:20.695Z,100226.91
2023-10-09T12:31:49.986Z,100222.34
2023-10-09T12:34:18.544Z,100224.59
2023-10-09T12:36:46.492Z,100207.72
2023-10-09T12:39:13.365Z,100202.28
2023-10-09T12:41:41.075Z,100209.63
2023-10-09T12:44:08.102Z,100205.41
2023-10-09T12:46:36.280Z,100212.81
2023-10-09T12:49:03.245Z,100212.81
2023-10-09T12:51:31.825Z,100211.75
2023-10-09T12:54:02.124Z,100219.75
2023-10-09T12:56:29.761Z,100221.09
2023-10-09T12:58:56.896Z,100248.88
2023-10-09T13:01:23.937Z,100242.19
2023-10-09T13:03:51.354Z,100231.31
2023-10-09T13:06:18.882Z,100235.81
2023-10-09T13:08:47.190Z,100233.03
2023-10-09T13:11:14.103Z,100235.50
2023-10-09T13:13:42.774Z,100239.59
2023-10-09T13:16:12.527Z,100240.63
2023-10-09T13:18:41.556Z,100237.66
2023-10-09T13:21:08.746Z,100228.75
2023-10-09T13:23:36.066Z,100232.91
2023-10-09T13:26:06.339Z,100224.59
2023-10-09T13:28:36.608Z,100239.56
2023-10-09T13:31:03.486Z,100232.44
2023-10-09T13:33:30.701Z,100199.84
2023-10-09T13:35:57.693Z,100202.81
2023-10-09T13:38:27.173Z,100214.78
2023-10-09T13:40:58.996Z,100196.53
2023-10-09T13:43:27.220Z,100203.28
2023-10-09T13:45:54.435Z,100207.19
2023-10-09T13:48:21.702Z,100207.41
2023-10-09T13:50:52.115Z,100206.88
2023-10-09T13:53:21.054Z,100190.06
2023-10-09T13:55:48.128Z,100189.00
2023-10-09T13:58:15.611Z,100177.56
2023-10-09T14:00:44.600Z,100178.72
2023-10-09T14:03:12.101Z,100179.53
2023-10-09T14:05:40.556Z,100188.19
2023-10-09T14:08:08.077Z,100182.59
2023-10-09T14:10:38.411Z,100183.31
2023-10-09T14:13:06.874Z,100171.56
2023-10-09T14:15:34.724Z,100184.97
2023-10-09T14:18:05.011Z,100177.88
2023-10-09T14:20:32.581Z,100184.56
2023-10-09T14:23:00.984Z,100180.78
2023-10-09T14:25:32.654Z,100185.16
2023-10-09T14:27:59.770Z,100183.78
2023-10-09T14:30:27.389Z,100165.13
2023-10-09T14:32:58.265Z,100174.13
2023-10-09T14:35:27.912Z,100169.03
2023-10-09T14:37:56.267Z,100171.66
2023-10-09T14:40:24.623Z,100175.72
2023-10-09T14:42:53.401Z,100170.53
2023-10-09T14:45:27.698Z,100159.59
2023-10-09T14:47:55.187Z,100152.66
2023-10-09T14:50:22.545Z,100150.69
2023-10-09T14:52:52.422Z,100150.03
2023-10-09T14:55:20.616Z,100160.78
2023-10-09T14:57:49.183Z,100158.56
2023-10-09T15:00:17.951Z,100154.28
2023-10-09T15:02:45.470Z,100169.69
2023-10-09T15:05:13.445Z,100175.22
2023-10-09T15:07:41.761Z,100161.34
2023-10-09T15:10:12.818Z,100169.97
2023-10-09T15:12:40.213Z,100172.16
2023-10-09T15:15:09.664Z,100184.31
2023-10-09T15:17:36.832Z,100175.28
2023-10-09T15:20:05.653Z,100181.03
2023-10-09T15:22:33.553Z,100171.16
2023-10-09T15:25:01.747Z,100168.88
2023-10-09T15:27:30.140Z,100159.06
2023-10-09T15:29:57.712Z,100147.81
2023-10-09T15:32:25.041Z,100153.84
2023-10-09T15:34:56.874Z,100145.94
2023-10-09T15:37:27.595Z,100136.63
2023-10-09T15:39:55.285Z,100151.13
2023-10-09T15:42:23.622Z,100154.75
2023-10-09T15:44:53.848Z,100150.59
2023-10-09T15:47:20.798Z,100149.53
2023-10-09T15:49:47.761Z,100144.00
2023-10-09T15:52:14.948Z,100144.59
2023-10-09T15:54:41.891Z,100146.81
2023-10-09T15:57:14.035Z,100141.03
2023-10-09T15:59:41.532Z,100136.66
2023-10-09T16:02:10.539Z,100136.16
2023-10-09T16:04:37.531Z,100135.91
2023-10-09T16:07:08.294Z,100119.22
2023-10-09T16:09:35.229Z,100117.84
2023-10-09T16:12:03.460Z,100121.63
2023-10-09T16:14:30.783Z,100127.63
2023-10-09T16:16:57.743Z,100138.78
2023-10-09T16:19:26.173Z,100144.41
2023-10-09T16:21:53.224Z,100132.34
2023-10-09T16:24:22.615Z,100121.41
2023-10-09T16:26:49.993Z,100125.56
2023-10-09T16:29:17.321Z,100128.28
2023-10-09T16:31:44.717Z,100135.16
2023-10-09T16:34:11.871Z,100135.69
2023-10-09T16:36:40.156Z,100136.25
2023-10-09T16:39:07.192Z,100132.13
2023-10-09T16:41:34.114Z,100128.25
2023-10-09T16:44:01.900Z,100135.69
2023-10-09T16:46:29.061Z,100136.22
2023-10-09T16:48:55.941Z,100140.03
2023-10-09T16:51:23.076Z,100138.66
2023-10-09T16:53:52.430Z,100127.34
2023-10-09T16:56:20.281Z,100122.38
2023-10-09T16:58:47.746Z,100126.97
2023-10-09T17:01:17.367Z,100136.56
2023-10-09T17:03:45.273Z,100142.59
2023-10-09T17:06:13.890Z,100149.75
2023-10-09T17:08:41.633Z,100152.19
2023-10-09T17:11:10.389Z,100143.94
2023-10-09T17:13:37.305Z,100152.16
2023-10-09T17:16:04.365Z,100141.19
2023-10-09T17:18:31.369Z,100137.31
2023-10-09T17:20:58.300Z,100130.44
2023-10-09T17:23:25.374Z,100134.84
2023-10-09T17:25:52.685Z,100134.78
2023-10-09T17:28:21.005Z,100140.44
2023-10-09T17:30:48.889Z,100142.72
2023-10-09T17:33:16.985Z,100146.56
2023-10-09T17:35:44.425Z,100152.59
2023-10-09T17:38:11.709Z,100150.88
2023-10-09T17:40:45.987Z,100156.63
2023-10-09T17:43:12.953Z,100149.69
2023-10-09T17:45:41.825Z,100146.66
2023-10-09T17:48:10.619Z,100151.25
2023-10-09T17:50:43.875Z,100140.97
2023-10-09T17:53:14.830Z,100138.63
2023-10-09T17:55:44.567Z,100130.66
2023-10-09T17:58:13.566Z,100134.56
2023-10-09T18:00:44.246Z,100144.69
2023-10-09T18:03:16.221Z,100147.09
2023-10-09T18:05:45.018Z,100138.16
2023-10-09T18:08:14.261Z,100133.72
2023-10-09T18:10:44.361Z,100127.88
2023-10-09T18:13:13.534Z,100131.63
2023-10-09T18:15:42.540Z,100126.28
2023-10-09T18:18:15.682Z,100128.28
2023-10-09T18:21:14.781Z,100133.31
2023-10-09T18:23:43.682Z,100136.94
2023-10-09T18:26:11.419Z,100142.41
2023-10-09T18:28:38.750Z,100135.03
2023-10-09T18:31:13.296Z,100128.28
2023-10-09T18:33:46.167Z,100132.47
2023-10-09T18:36:13.171Z,100132.63
2023-10-09T18:38:40.832Z,100132.22
2023-10-09T18:41:11.459Z,100133.38
2023-10-09T18:43:38.597Z,100131.22
2023-10-09T18:46:05.630Z,100137.13
2023-10-09T18:48:34.580Z,100143.19
2023-10-09T18:51:01.924Z,100135.72
2023-10-09T18:53:29.129Z,100130.00
2023-10-09T18:55:59.445Z,100137.38
2023-10-09T18:58:26.474Z,100135.66
2023-10-09T19:00:55.111Z,100136.78
2023-10-09T19:03:22.822Z,100143.91
2023-10-09T19:05:51.540Z,100145.84
2023-10-09T19:08:18.610Z,100148.31
2023-10-09T19:10:45.902Z,100140.66
2023-10-09T19:13:13.766Z,100144.38
2023-10-09T19:15:41.586Z,100147.56
2023-10-09T19:18:09.072Z,100152.19
2023-10-09T19:20:38.900Z,100149.19
2023-10-09T19:23:08.015Z,100149.97
2023-10-09T19:25:35.163Z,100153.88
2023-10-09T19:28:02.484Z,100154.31
2023-10-09T19:30:29.776Z,100156.28
2023-10-09T19:32:56.806Z,100160.09
2023-10-09T19:35:26.687Z,100160.78
2023-10-09T19:37:53.817Z,100158.69
2023-10-09T19:40:29.263Z,100158.94
2023-10-09T19:42:57.543Z,100163.97
2023-10-09T19:45:26.725Z,100171.19
2023-10-09T19:47:53.825Z,100166.72
2023-10-09T19:50:24.664Z,100162.03
2023-10-09T19:52:51.883Z,100170.41
2023-10-09T19:55:19.149Z,100171.03
2023-10-09T19:57:47.769Z,100174.53
2023-10-09T20:00:15.903Z,100179.94
2023-10-09T20:02:43.099Z,100175.13
2023-10-09T20:05:12.133Z,100171.03
2023-10-09T20:07:39.377Z,100179.06
2023-10-09T20:10:08.154Z,100177.28
2023-10-09T20:12:38.093Z,100169.97
2023-10-09T20:15:08.541Z,100176.31
2023-10-09T20:17:36.021Z,100173.59
2023-10-09T20:20:03.331Z,100182.56
2023-10-09T20:22:32.107Z,100177.47
2023-10-09T20:24:59.056Z,100183.19
2023-10-09T20:27:26.732Z,100187.16
2023-10-09T20:29:55.009Z,100181.09
2023-10-09T20:32:23.833Z,100199.09
2023-10-09T20:34:51.012Z,100204.63
2023-10-09T20:37:18.087Z,100205.22
2023-10-09T20:39:52.732Z,100193.75
2023-10-09T20:42:19.724Z,100206.94
2023-10-09T20:44:51.177Z,100198.72
2023-10-09T20:47:44.484Z,100202.31
2023-10-09T20:50:12.142Z,100212.06
2023-10-09T20:52:39.086Z,100204.19
2023-10-09T20:55:07.100Z,100214.38
2023-10-09T20:57:34.015Z,100211.41
2023-10-09T21:00:00.925Z,100210.81
2023-10-09T21:02:28.310Z,100211.91
2023-10-09T21:04:58.090Z,100211.41
2023-10-09T21:07:25.607Z,100211.19
2023-10-09T21:09:52.595Z,100207.31
2023-10-09T21:12:19.856Z,100214.41
2023-10-09T21:14:47.146Z,100208.81
2023-10-09T21:17:14.496Z,100207.97
2023-10-09T21:19:42.552Z,100224.81
2023-10-09T21:22:10.849Z,100224.94
2023-10-09T21:24:37.996Z,100227.16
2023-10-09T21:27:05.201Z,100227.16
2023-10-09T21:29:32.323Z,100227.50
2023-10-09T21:32:00.120Z,100230.06
2023-10-09T21:34:27.718Z,100234.69
2023-10-09T21:36:56.381Z,100236.00
2023-10-09T21:39:27.969Z,100251.91
2023-10-09T21:41:57.352Z,100249.47
2023-10-09T21:44:25.992Z,100248.97
2023-10-09T21:46:55.391Z,100249.47
2023-10-09T21:49:22.625Z,100248.19
2023-10-09T21:51:50.102Z,100251.66
2023-10-09T21:54:18.665Z,100261.13
2023-10-09T21:56:47.229Z,100264.94
2023-10-09T21:59:15.256Z,100260.63
2023-10-09T22:01:43.552Z,100259.81
2023-10-09T22:04:10.774Z,100265.34
2023-10-09T22:06:37.964Z,100267.59
2023-10-09T22:09:05.937Z,100271.75
2023-10-09T22:11:33.057Z,100268.25
2023-10-09T22:14:03.351Z,100267.41
2023-10-09T22:16:31.128Z,100269.66
2023-10-09T22:19:13.070Z,100271.78
2023-10-09T22:21:43.729Z,100271.53
2023-10-09T22:24:19.385Z,100279.19
2023-10-09T22:26:50.429Z,100277.28
2023-10-09T22:29:19.326Z,100273.97
2023-10-09T22:31:48.051Z,100275.41
2023-10-09T22:34:17.301Z,100271.31
2023-10-09T22:36:53.076Z,100266.19
2023-10-09T22:39:25.174Z,100276.31
2023-10-09T22:41:59.923Z,100279.75
2023-10-09T22:44:30.618Z,100283.19
2023-10-09T22:46:57.923Z,100283.75
2023-10-09T22:49:25.205Z,100277.75
2023-10-09T22:51:52.798Z,100279.38
2023-10-09T22:54:20.979Z,100281.50
2023-10-09T22:56:47.856Z,100274.41
2023-10-09T22:59:14.941Z,100280.34
2023-10-09T23:01:43.579Z,100282.59
2023-10-09T23:04:10.630Z,100270.03
2023-10-09T23:06:38.641Z,100275.25
2023-10-09T23:09:05.705Z,100271.91
2023-10-09T23:11:32.935Z,100275.38
2023-10-09T23:14:00.092Z,100269.66
2023-10-09T23:16:27.094Z,100269.31
2023-10-09T23:18:55.417Z,100272.25
2023-10-09T23:21:22.402Z,100269.41
2023-10-09T23:23:50.473Z,100269.25
2023-10-09T23:26:18.661Z,100261.06
2023-10-09T23:28:45.605Z,100272.22
2023-10-09T23:31:15.397Z,100268.53
2023-10-09T23:33:42.400Z,100269.81
2023-10-09T23:36:10.695Z,100269.69
2023-10-09T23:38:37.600Z,100266.59
2023-10-09T23:41:04.739Z,100270.41
2023-10-09T23:43:31.761Z,100272.28
2023-10-09T23:45:59.244Z,100277.50
2023-10-09T23:48:27.440Z,100277.50
2023-10-09T23:50:55.740Z,100277.63
2023-10-09T23:53:24.463Z,100277.72
2023-10-09T23:55:53.014Z,100268.59
2023-10-09T23:58:21.064Z,100277.06
